Colorado Springs, CO (80924)

10:01 PM MST on February 07, 2016 (GMT -0700)
Briargate | | Change Station
CLOSE
Current Station
Personal Weather Station
Location: Colorado Springs, CO
Elevation: 6952 ft
Nearby Weather Stations

Elev 6952 ft 38.96 °N, 104.76 °W | Updated 5 minutes ago

Overcast
Overcast
21.0 °F
Feels Like 21 °F
N
1.6
Wind Variable Wind from ESE

Today
High -- | Low -- °F
--% Chance of Precip.
Yesterday
High -- | Low -- °F
Precip. -- in
Pressure 30.45 in
Visibility 10.0 miles
Clouds Overcast 600 ft
Windchill 21 °F
Dew Point 20 °F
Humidity 95%
Rainfall 0.00 in
Snow Depth Not available.
6:59 AM 5:26 PM
Waning Crescent, 0% visible
METAR KAFF 080458Z AUTO 17004KT 10SM OVC006 M05/M06 A3036 RMK AO2 SLP312 T10521064
Pressure 30.45 in
Visibility 10.0 miles
Clouds Overcast 600 ft
Windchill 21 °F
Dew Point 20 °F
Humidity 95%
Rainfall 0.00 in
Snow Depth Not available.
6:59 AM 5:26 PM
Waning Crescent, 0% visible
METAR KAFF 080458Z AUTO 17004KT 10SM OVC006 M05/M06 A3036 RMK AO2 SLP312 T10521064

10-Day Weather Forecast

Almanac

Astronomy

Feb. 07, 2016 Rise Set
Actual Time
Civil Twilight
Nautical Twilight
Astronomical Twilight
Moon
Length of Visible Light
Length of Day
Tomorrow will be .
, % of the Moon is Illuminated

Today's Extremes

State Highs State Lows

Community

WunderPhotos

Upload Photos

1,891,382 photos uploaded!

WunderBlog® & News

Nearby

Air Quality

  Air Quality AQ Index Pollutant
Not available.

Snow Depth

Station Depth Elevation

Earthquake Activity

City Distance Mag. Time & Date
Minimum magnitude displayed is 2.5.

Coastal Water Temperatures

Place Temperature

Stations

Nearby Weather Stations

Station Location Temp. Windchill Dew Point Humidity Wind Precip. Elev Updated Type
                   

Watches & Warnings

There are currently no watches in effect.